Terminal Aerodrome Forecast
Issued by NWS Green Bay, WI

Home | Current Version | Previous Version | Graphics & Text | Print | Product List | Glossary On
Versions: 1 2 3 4 5 6 7 8 9 10 11 12 13 14 15 16 17 18 19 20 21 22 23 24 25 26 27 28 29 30 31 32 33 34 35 36 37
000
FTUS43 KGRB 261700 RRA
TAFGRB
TAF
KGRB 261741Z 2618/2718 VRB03KT 4SM BR BKN012 OVC070
      TEMPO 2618/2622 6SM BR SCT012
     FM270500 29004KT 6SM BR BKN014 OVC025
     FM270900 32008KT 6SM -SN SCT014 BKN025 PROB30 2709/2714 2SM
      -SHSN BKN014
     FM271500 32015G23KT P6SM SCT025 BKN050=

USA.gov is the U.S. government's official web portal to all federal, state and local government web resources and services.